Mauckport, Indiana
Current Conditions -  °F | °C
As of 7:58 AM on Saturday 01 Nov 2014 (Local Time) from KFTK Reporting Station
Overcast Overcast  
Wind Chill: 24°   Ceiling: 2600
Heat Index: 33°   Visibility: 10mi
Dew Point: 25°   Wind: 14mph
Humidity: 72%   Direction: 320°NW
Pressure: 30.21"   Gusts: 21mph
Location:  38.03°N, 86.2°W
Report Text: KFTK 011158Z AUTO 32012G18KT 10SM OVC026 01/M04 A3021 RMK AO2 SLP239 60000 70012 T00081037 10018 20008 52023
Loading
Personal Weather Stations






























Interactive Weather Map
Tropical Storm Tracking
New forecast layout! Learn more

10-Day Weather Forecast

Advertisements
Track Severe Weather on mobile